Flight Track Log - Related Links

Times and Time Zones

All times are in EDT time to prevent confusion due to time zone crossing. See the N232CF flight status page for this flight to view local times or setup timezone preferences in your user account.

Time Position Orientation Groundspeed Altitude Reporting Facility
EDT Latitude Longitude Course Direction KTS MPH feet Rate Location/Type
Wed 07:54:18 PM 37.0056 -84.9269 67° East 305 351 8,100  Level Indianapolis Center
Wed 07:55:19 PM 37.0525 -84.8031 65° Northeast 330 380 10,900 2,634 Climbing Indianapolis Center
Wed 07:56:21 PM 37.0969 -84.6858 65° Northeast 370 426 13,500 2,710 Climbing Indianapolis Center
Wed 07:57:23 PM 37.1414 -84.5667 65° Northeast 375 432 16,500 2,585 Climbing Indianapolis Center
Wed 07:58:24 PM 37.1853 -84.4458 65° Northeast 379 436 18,800 2,098 Climbing Indianapolis Center
Wed 07:59:00 PM 37.7029 -83.1414 67° East  Level FlightAware Approximate
Wed 07:59:26 PM 37.2333 -84.3208 64° Northeast 393 452 20,800  Level Indianapolis Center
Wed 08:00:28 PM 37.2811 -84.1897 65° Northeast 411 473 22,900 1,951 Climbing Indianapolis Center
Wed 08:01:29 PM 37.3311 -84.0542 65° Northeast 421 484 24,800 1,951 Climbing Indianapolis Center
Wed 08:02:31 PM 37.3917 -83.8914 65° Northeast 444 511 26,900 1,790 Climbing Indianapolis Center
Wed 08:03:33 PM 37.4436 -83.7494 65° Northeast 448 516 28,500 1,452 Climbing Indianapolis Center
Wed 08:04:35 PM 37.4964 -83.6022 66° East 459 528 29,900 1,415 Climbing Indianapolis Center
Wed 08:05:36 PM 37.5514 -83.4508 65° Northeast 471 542 31,400 1,659 Climbing Indianapolis Center
Wed 08:06:38 PM 37.6064 -83.2947 66° East 482 555 33,300 1,790 Climbing Indianapolis Center
Wed 08:07:40 PM 37.6636 -83.1364 65° Northeast 488 562 35,100 1,784 Climbing Indianapolis Center
Wed 08:09:00 PM 37.7185 -82.9471 66° East  Level FlightAware Approximate
Wed 08:09:43 PM 37.7739 -82.8211 66° East 488 562 38,800  Level Indianapolis Center
Wed 08:10:45 PM 37.8383 -82.6447 65° Northeast 477 549 41,000 1,065 Climbing Indianapolis Center
Wed 08:11:47 PM 37.8939 -82.4850 66° East 491 565 41,000  Level Indianapolis Center
Wed 08:12:48 PM 37.9514 -82.3181 66° East 512 589 41,000  Level Indianapolis Center
Wed 08:13:50 PM 38.0422 -82.1786 50° Northeast 514 592 41,000  Level Indianapolis Center
Wed 08:14:52 PM 38.1275 -82.0553 49° Northeast 516 594 41,000 -98 Level Indianapolis Center
Wed 08:15:53 PM 38.2108 -81.8586 62° Northeast 529 609 40,800 -634 Descending Indianapolis Center
Wed 08:16:55 PM 38.2781 -81.6928 63° Northeast 532 612 39,700 -919 Descending Indianapolis Center
Wed 08:17:57 PM 38.3467 -81.5236 63° Northeast 539 620 38,900 -1,073 Descending Indianapolis Center
Wed 08:18:58 PM 38.4153 -81.3564 62° Northeast 539 620 37,500 -1,317 Descending Indianapolis Center
Wed 08:20:00 PM 38.4822 -81.1897 63° Northeast 537 618 36,200 -1,790 Descending Indianapolis Center
Wed 08:21:02 PM 38.5469 -81.0289 63° Northeast 517 595 33,800 -1,561 Descending Indianapolis Center
Wed 08:22:03 PM 38.6283 -80.8253 63° Northeast 538 619 33,000 -387 Descending Indianapolis Center
Wed 08:23:06 PM 38.6953 -80.6547 63° Northeast 538 619 33,000  Level Indianapolis Center
Wed 08:24:07 PM 38.7636 -80.4811 63° Northeast 545 627 33,000 -1,721 Level Indianapolis Center
Wed 08:25:08 PM 38.8322 -80.3078 63° Northeast 546 628 29,500 -2,683 Descending Indianapolis Center
Wed 08:26:10 PM 38.9011 -80.1342 63° Northeast 547 629 27,500 -1,790 Descending Indianapolis Center
Wed 08:27:12 PM 38.9536 -79.9617 69° East 532 612 25,800 -1,220 Descending Indianapolis Center
Wed 08:28:13 PM 39.0106 -79.7575 70° East 521 600 25,000 -634 Descending Indianapolis Center
Wed 08:29:15 PM 39.0575 -79.5894 70° East 514 592 24,500 -1,258 Descending Indianapolis Center
Wed 08:30:17 PM 39.1089 -79.4061 70° East 511 588 22,400 -2,064 Descending Indianapolis Center
Wed 08:31:20 PM 39.1728 -79.2408 63° Northeast 506 582 20,200 -1,659 Descending Washington Center
Wed 08:32:20 PM 39.2419 -79.0942 59° Northeast 480 552 19,000 -1,220 Descending Washington Center
Wed 08:33:18 PM 39.2964 -78.9361 66° East 474 545 17,800 -1,017 Descending Washington Center
Wed 08:34:18 PM 39.3528 -78.7803 65° Northeast 474 545 17,000 -1,091 Descending Washington Center
Wed 08:35:19 PM 39.3842 -78.6097 77° East 474 545 15,600 -1,000 Descending Washington Center
Wed 08:36:18 PM 39.3842 -78.4353 90° East 474 545 15,000 -240 Descending Washington Center
Wed 08:37:49 PM 39.3833 -78.1667 90° East 495 570 15,000  Level Potomac TRACON
Wed 08:38:19 PM 39.3858 -78.0833 88° East 484 557 15,000  Level Washington Center
Wed 08:39:20 PM 39.3997 -77.9119 84° East 479 551 15,000  Level Washington Center
Wed 08:40:18 PM 39.4153 -77.7381 83° East 479 551 15,000 -600 Level Washington Center
Wed 08:41:20 PM 39.4283 -77.5853 84° East 479 551 13,800 -1,600 Descending Washington Center
Wed 08:42:18 PM 39.4414 -77.4217 84° East 474 545 11,800 -2,000 Descending Washington Center
Wed 08:42:44 PM 39.4500 -77.3333 83° East 442 509 11,000 -698 Descending Potomac TRACON
Wed 08:43:44 PM 39.4500 -77.1833 90° East 431 496 10,800 -505 Descending Potomac TRACON
Wed 08:44:19 PM 39.4456 -77.1208 95° East 423 487 10,200 -1,188 Descending Washington Center
Wed 08:45:20 PM 39.4367 -76.9994 95° East 377 434 8,900 -1,525 Descending Washington Center
Wed 08:46:21 PM 39.4294 -76.8892 95° East 332 382 7,100 -2,154 Descending Washington Center
Wed 08:46:38 PM 39.4333 -76.8333 85° East 305 351 6,100 -2,096 Descending Potomac TRACON
Wed 08:47:44 PM 39.4167 -76.7333 102° East 294 338 4,200 -1,476 Descending Potomac TRACON
Wed 08:48:44 PM 39.3833 -76.6333 113° Southeast 275 316 3,000 -1,041 Descending Potomac TRACON
Wed 08:49:45 PM 39.3667 -76.5500 104° East 242 278 2,100 -744 Descending Potomac TRACON
Wed 08:50:45 PM 39.3333 -76.4833 123° Southeast 223 257 1,500 -350 Descending Potomac TRACON
Wed 08:51:45 PM 39.2833 -76.4333 142° Southeast 190 219 1,400 -198 Descending Potomac TRACON
Wed 08:52:46 PM 39.2833 -76.3833 90° East 176 203 1,100 -545 Descending Potomac TRACON
Wed 08:53:46 PM 39.3167 -76.4000 339° North 153 176 300 -800 Descending Potomac TRACON
Wed 08:55:00 PM 39.3257 -76.4138 339° North  Level Estimated
Wed 09:02:00 PM 39.3257 -76.4138 339° North  Level Estimated
Wed 09:03:00 PM 39.3257 -76.4138 339° North  Level Estimated
Wed 09:04:00 PM 39.3257 -76.4138 339° North  Level Estimated
Wed 09:05:00 PM 39.3257 -76.4138 339° North  Level Estimated
Wed 09:06:00 PM 39.3257 -76.4138 339° North  Level Estimated
Wed 09:07:00 PM 39.3257 -76.4138 339° North  Level Estimated
Wed 09:08:00 PM 39.3257 -76.4138 339° North  Level Estimated
Wed 09:09:00 PM 39.3257 -76.4138 339° North  Level Estimated

Login

Don't have an account? Register now (free) for customized features, flight alerts, and more!